TimeCDT,TemperatureF,Dew PointF,Humidity,Sea Level PressureIn,VisibilityMPH,Wind Direction,Wind SpeedMPH,Gust SpeedMPH,PrecipitationIn,Events,Conditions,WindDirDegrees,DateUTC
12:15 AM,51.8,28.4,41,29.92,10.0,SSW,13.8,19.6,N/A,,Mostly Cloudy,200,2012-10-09 05:15:00
12:35 AM,51.8,28.4,41,29.91,10.0,SSW,15.0,19.6,N/A,,Scattered Clouds,210,2012-10-09 05:35:00
12:55 AM,51.8,30.2,44,29.91,10.0,SSW,12.7,20.7,N/A,,Clear,210,2012-10-09 05:55:00
1:15 AM,50.0,30.2,47,29.91,10.0,SSW,13.8,20.7,N/A,,Clear,200,2012-10-09 06:15:00
1:55 AM,50.0,30.2,47,29.91,10.0,SSW,16.1,20.7,N/A,,Clear,210,2012-10-09 06:55:00
2:15 AM,51.8,30.2,44,29.90,10.0,SSW,13.8,20.7,N/A,,Scattered Clouds,210,2012-10-09 07:15:00
2:55 AM,51.8,30.2,44,29.88,10.0,SW,15.0,21.9,N/A,,Scattered Clouds,220,2012-10-09 07:55:00
3:15 AM,50.0,30.2,47,29.88,10.0,SW,17.3,25.3,N/A,,Clear,220,2012-10-09 08:15:00
3:35 AM,50.0,30.2,47,29.88,10.0,SW,17.3,23.0,N/A,,Clear,220,2012-10-09 08:35:00
4:15 AM,50.0,32.0,50,29.88,10.0,SW,11.5,20.7,N/A,,Clear,220,2012-10-09 09:15:00
4:35 AM,50.0,32.0,50,29.87,10.0,SSW,11.5,18.4,N/A,,Clear,210,2012-10-09 09:35:00
4:55 AM,50.0,32.0,50,29.87,10.0,SW,11.5,19.6,N/A,,Clear,220,2012-10-09 09:55:00
5:15 AM,50.0,32.0,50,29.87,10.0,SW,12.7,20.7,N/A,,Mostly Cloudy,220,2012-10-09 10:15:00
5:35 AM,50.0,32.0,50,29.87,10.0,SSW,10.4,23.0,N/A,,Mostly Cloudy,210,2012-10-09 10:35:00
5:55 AM,50.0,32.0,50,29.87,10.0,SW,12.7,19.6,N/A,,Overcast,220,2012-10-09 10:55:00
6:15 AM,50.0,32.0,50,29.87,10.0,SSW,9.2,18.4,N/A,,Overcast,200,2012-10-09 11:15:00
6:45 AM,50.0,32.0,50,29.87,10.0,SSW,9.2,-,N/A,,Overcast,200,2012-10-09 11:45:00
6:55 AM,50.0,32.0,50,29.87,10.0,SSW,9.2,-,N/A,,Mostly Cloudy,200,2012-10-09 11:55:00
7:45 AM,48.2,32.0,54,29.87,10.0,SSW,11.5,-,N/A,,Mostly Cloudy,210,2012-10-09 12:45:00
8:45 AM,50.0,33.8,54,29.85,10.0,SSW,12.7,-,N/A,,Overcast,200,2012-10-09 13:45:00
9:45 AM,51.8,33.8,50,29.85,10.0,SW,12.7,-,N/A,,Overcast,220,2012-10-09 14:45:00
10:45 AM,55.4,35.6,47,29.84,10.0,SW,15.0,20.7,N/A,,Scattered Clouds,230,2012-10-09 15:45:00
11:45 AM,59.0,35.6,42,29.81,10.0,SSW,16.1,25.3,N/A,,Clear,210,2012-10-09 16:45:00
12:45 PM,60.8,35.6,39,29.80,10.0,SW,15.0,26.5,N/A,,Overcast,220,2012-10-09 17:45:00
1:45 PM,60.8,35.6,39,29.78,10.0,SSW,17.3,25.3,N/A,,Mostly Cloudy,200,2012-10-09 18:45:00
3:45 PM,62.6,35.6,37,29.77,10.0,SW,21.9,29.9,N/A,,Scattered Clouds,220,2012-10-09 20:45:00
4:45 PM,60.8,35.6,39,29.76,10.0,WSW,16.1,25.3,N/A,,Overcast,240,2012-10-09 21:45:00
5:45 PM,53.6,39.2,58,29.81,10.0,WNW,17.3,26.5,N/A,,Overcast,300,2012-10-09 22:45:00
6:12 PM,51.8,41.0,67,29.82,10.0,WNW,20.7,29.9,N/A,,Overcast,290,2012-10-09 23:12:00
6:45 PM,48.2,39.2,71,29.84,10.0,WNW,23.0,32.2,N/A,,Overcast,300,2012-10-09 23:45:00
7:45 PM,44.6,41.0,87,29.86,7.0,WNW,9.2,-,N/A,Rain,Rain,300,2012-10-10 00:45:00
8:45 PM,42.8,39.2,87,29.86,10.0,SW,5.8,-,N/A,,Light Drizzle,230,2012-10-10 01:45:00
9:15 PM,41.0,37.4,87,29.86,10.0,SW,5.8,-,N/A,,Overcast,220,2012-10-10 02:15:00
9:35 PM,41.0,37.4,87,29.86,10.0,SW,8.1,-,N/A,,Overcast,230,2012-10-10 02:35:00
9:55 PM,41.0,37.4,87,29.85,10.0,SW,8.1,-,N/A,,Overcast,230,2012-10-10 02:55:00
10:15 PM,41.0,37.4,87,29.86,10.0,SW,6.9,-,N/A,,Overcast,230,2012-10-10 03:15:00
10:35 PM,41.0,37.4,87,29.86,10.0,WSW,6.9,-,N/A,,Mostly Cloudy,240,2012-10-10 03:35:00
10:55 PM,41.0,37.4,87,29.86,10.0,SW,6.9,-,N/A,,Clear,230,2012-10-10 03:55:00
11:15 PM,41.0,37.4,87,29.87,10.0,WSW,6.9,-,N/A,,Clear,240,2012-10-10 04:15:00
11:35 PM,41.0,37.4,87,29.86,10.0,WSW,8.1,-,N/A,,Clear,240,2012-10-10 04:35:00
11:55 PM,41.0,37.4,87,29.87,10.0,WSW,6.9,-,N/A,,Scattered Clouds,250,2012-10-10 04:55:00